sensor_id;sensor_type;location;lat;lon;timestamp;pressure;altitude;pressure_sealevel;temperature;humidity
46087;BME280;31824;49.648;8.640;2023-04-01T00:01:05;98772.69;;;10.09;100.00
46087;BME280;31824;49.648;8.640;2023-04-01T00:04:07;98772.69;;;10.09;100.00
46087;BME280;31824;49.648;8.640;2023-04-01T00:07:09;98782.16;;;10.07;100.00
46087;BME280;31824;49.648;8.640;2023-04-01T00:10:17;98775.31;;;10.09;100.00
46087;BME280;31824;49.648;8.640;2023-04-01T00:13:21;98776.31;;;10.11;100.00
46087;BME280;31824;49.648;8.640;2023-04-01T00:16:23;98771.66;;;10.07;100.00
46087;BME280;31824;49.648;8.640;2023-04-01T00:19:25;98778.63;;;10.07;100.00
46087;BME280;31824;49.648;8.640;2023-04-01T00:22:27;98783.88;;;10.07;100.00
46087;BME280;31824;49.648;8.640;2023-04-01T00:25:29;98773.47;;;10.08;100.00
46087;BME280;31824;49.648;8.640;2023-04-01T00:28:34;98776.22;;;10.10;100.00
46087;BME280;31824;49.648;8.640;2023-04-01T00:31:37;98783.97;;;10.08;100.00
46087;BME280;31824;49.648;8.640;2023-04-01T00:34:39;98782.72;;;10.03;100.00
46087;BME280;31824;49.648;8.640;2023-04-01T00:37:41;98779.63;;;10.09;100.00
46087;BME280;31824;49.648;8.640;2023-04-01T00:40:46;98781.03;;;10.04;100.00
46087;BME280;31824;49.648;8.640;2023-04-01T00:43:51;98774.16;;;10.06;100.00
46087;BME280;31824;49.648;8.640;2023-04-01T00:46:54;98786.50;;;10.07;100.00
46087;BME280;31824;49.648;8.640;2023-04-01T00:50:02;98779.88;;;10.12;100.00
46087;BME280;31824;49.648;8.640;2023-04-01T00:53:05;98773.94;;;10.14;100.00
46087;BME280;31824;49.648;8.640;2023-04-01T00:56:12;98779.97;;;10.13;100.00
46087;BME280;31824;49.648;8.640;2023-04-01T00:59:21;98779.19;;;10.14;100.00
46087;BME280;31824;49.648;8.640;2023-04-01T01:02:25;98765.34;;;10.17;100.00
46087;BME280;31824;49.648;8.640;2023-04-01T01:05:38;98774.94;;;10.17;100.00
46087;BME280;31824;49.648;8.640;2023-04-01T01:09:03;98762.72;;;10.17;100.00
46087;BME280;31824;49.648;8.640;2023-04-01T01:12:13;98776.66;;;10.16;100.00
46087;BME280;31824;49.648;8.640;2023-04-01T01:15:20;98758.97;;;10.13;100.00
46087;BME280;31824;49.648;8.640;2023-04-01T01:18:28;98771.16;;;10.13;100.00
46087;BME280;31824;49.648;8.640;2023-04-01T01:21:45;98772.09;;;10.13;100.00
46087;BME280;31824;49.648;8.640;2023-04-01T01:24:57;98751.09;;;10.13;100.00
46087;BME280;31824;49.648;8.640;2023-04-01T01:28:17;98751.09;;;10.13;100.00
46087;BME280;31824;49.648;8.640;2023-04-01T01:31:28;98747.44;;;10.11;100.00
46087;BME280;31824;49.648;8.640;2023-04-01T01:34:40;98730.22;;;10.15;100.00
46087;BME280;31824;49.648;8.640;2023-04-01T01:37:46;98727.81;;;10.18;100.00
46087;BME280;31824;49.648;8.640;2023-04-01T01:40:49;98726.91;;;10.18;100.00
46087;BME280;31824;49.648;8.640;2023-04-01T01:43:56;98732.16;;;10.18;100.00
46087;BME280;31824;49.648;8.640;2023-04-01T01:47:00;98720.03;;;10.20;100.00
46087;BME280;31824;49.648;8.640;2023-04-01T01:50:03;98716.31;;;10.16;100.00
46087;BME280;31824;49.648;8.640;2023-04-01T01:53:09;98719.72;;;10.15;100.00
46087;BME280;31824;49.648;8.640;2023-04-01T01:56:12;98719.72;;;10.15;100.00
46087;BME280;31824;49.648;8.640;2023-04-01T01:59:17;98713.44;;;10.13;100.00
46087;BME280;31824;49.648;8.640;2023-04-01T02:02:21;98725.47;;;10.09;100.00
46087;BME280;31824;49.648;8.640;2023-04-01T02:05:25;98721.00;;;10.08;100.00
46087;BME280;31824;49.648;8.640;2023-04-01T02:08:39;98719.88;;;10.05;100.00
46087;BME280;31824;49.648;8.640;2023-04-01T02:11:48;98726.03;;;10.05;100.00
46087;BME280;31824;49.648;8.640;2023-04-01T02:14:52;98709.38;;;10.05;100.00
46087;BME280;31824;49.648;8.640;2023-04-01T02:17:56;98722.63;;;10.06;100.00
46087;BME280;31824;49.648;8.640;2023-04-01T02:20:59;98721.91;;;10.09;100.00
46087;BME280;31824;49.648;8.640;2023-04-01T02:24:07;98718.50;;;10.10;100.00
46087;BME280;31824;49.648;8.640;2023-04-01T02:27:10;98720.31;;;10.11;100.00
46087;BME280;31824;49.648;8.640;2023-04-01T02:30:15;98721.00;;;10.08;100.00
46087;BME280;31824;49.648;8.640;2023-04-01T02:33:19;98724.66;;;10.10;100.00
46087;BME280;31824;49.648;8.640;2023-04-01T02:36:21;98734.44;;;10.13;100.00
46087;BME280;31824;49.648;8.640;2023-04-01T02:39:24;98729.63;;;10.19;100.00
46087;BME280;31824;49.648;8.640;2023-04-01T02:42:27;98735.56;;;10.17;100.00
46087;BME280;31824;49.648;8.640;2023-04-01T02:45:29;98735.31;;;10.25;100.00
46087;BME280;31824;49.648;8.640;2023-04-01T02:48:31;98743.44;;;10.17;100.00
46087;BME280;31824;49.648;8.640;2023-04-01T02:51:33;98744.03;;;10.12;100.00
46087;BME280;31824;49.648;8.640;2023-04-01T02:54:36;98733.59;;;10.26;100.00
46087;BME280;31824;49.648;8.640;2023-04-01T02:57:38;98736.78;;;10.34;100.00
46087;BME280;31824;49.648;8.640;2023-04-01T03:00:40;98726.81;;;10.41;100.00
46087;BME280;31824;49.648;8.640;2023-04-01T03:03:42;98722.72;;;10.33;100.00
46087;BME280;31824;49.648;8.640;2023-04-01T03:06:44;98717.69;;;10.36;100.00
46087;BME280;31824;49.648;8.640;2023-04-01T03:09:47;98729.13;;;10.37;100.00
46087;BME280;31824;49.648;8.640;2023-04-01T03:12:48;98719.09;;;10.31;100.00
46087;BME280;31824;49.648;8.640;2023-04-01T03:15:51;98722.66;;;10.20;100.00
46087;BME280;31824;49.648;8.640;2023-04-01T03:18:53;98719.41;;;10.10;100.00
46087;BME280;31824;49.648;8.640;2023-04-01T03:21:56;98727.88;;;10.06;100.00
46087;BME280;31824;49.648;8.640;2023-04-01T03:24:59;98723.53;;;10.07;100.00
46087;BME280;31824;49.648;8.640;2023-04-01T03:28:02;98728.97;;;10.10;100.00
46087;BME280;31824;49.648;8.640;2023-04-01T03:31:04;98730.03;;;10.12;100.00
46087;BME280;31824;49.648;8.640;2023-04-01T03:34:14;98730.53;;;10.20;100.00
46087;BME280;31824;49.648;8.640;2023-04-01T03:37:16;98725.97;;;10.17;100.00
46087;BME280;31824;49.648;8.640;2023-04-01T03:40:19;98726.69;;;10.14;100.00
46087;BME280;31824;49.648;8.640;2023-04-01T03:43:21;98739.09;;;10.17;100.00
46087;BME280;31824;49.648;8.640;2023-04-01T03:46:23;98738.09;;;10.15;100.00
46087;BME280;31824;49.648;8.640;2023-04-01T03:49:26;98734.34;;;10.11;100.00
46087;BME280;31824;49.648;8.640;2023-04-01T03:52:28;98732.53;;;10.10;100.00
46087;BME280;31824;49.648;8.640;2023-04-01T03:55:31;98736.84;;;10.10;100.00
46087;BME280;31824;49.648;8.640;2023-04-01T03:58:34;98738.78;;;10.12;100.00
46087;BME280;31824;49.648;8.640;2023-04-01T04:01:37;98743.25;;;10.13;100.00
46087;BME280;31824;49.648;8.640;2023-04-01T04:04:39;98737.22;;;10.03;100.00
46087;BME280;31824;49.648;8.640;2023-04-01T04:07:42;98727.53;;;10.02;100.00
46087;BME280;31824;49.648;8.640;2023-04-01T04:10:45;98727.44;;;10.00;100.00
46087;BME280;31824;49.648;8.640;2023-04-01T04:13:47;98730.84;;;9.99;100.00
46087;BME280;31824;49.648;8.640;2023-04-01T04:16:50;98723.19;;;10.02;100.00
46087;BME280;31824;49.648;8.640;2023-04-01T04:19:51;98732.28;;;10.07;100.00
46087;BME280;31824;49.648;8.640;2023-04-01T04:22:55;98722.50;;;10.05;100.00
46087;BME280;31824;49.648;8.640;2023-04-01T04:26:00;98731.28;;;10.05;100.00
46087;BME280;31824;49.648;8.640;2023-04-01T04:29:03;98721.69;;;10.06;100.00
46087;BME280;31824;49.648;8.640;2023-04-01T04:32:05;98723.19;;;10.02;100.00
46087;BME280;31824;49.648;8.640;2023-04-01T04:35:08;98737.66;;;10.09;100.00
46087;BME280;31824;49.648;8.640;2023-04-01T04:38:09;98721.59;;;10.04;100.00
46087;BME280;31824;49.648;8.640;2023-04-01T04:41:14;98720.81;;;10.05;100.00
46087;BME280;31824;49.648;8.640;2023-04-01T04:44:19;98721.81;;;10.07;100.00
46087;BME280;31824;49.648;8.640;2023-04-01T04:47:21;98718.50;;;10.10;100.00
46087;BME280;31824;49.648;8.640;2023-04-01T04:50:24;98724.06;;;10.14;100.00
46087;BME280;31824;49.648;8.640;2023-04-01T04:53:26;98724.19;;;10.16;100.00
46087;BME280;31824;49.648;8.640;2023-04-01T04:56:30;98723.59;;;10.20;100.00
46087;BME280;31824;49.648;8.640;2023-04-01T04:59:41;98731.22;;;10.17;100.00
46087;BME280;31824;49.648;8.640;2023-04-01T05:02:47;98725.38;;;10.21;100.00
46087;BME280;31824;49.648;8.640;2023-04-01T05:05:50;98720.03;;;10.20;100.00
46087;BME280;31824;49.648;8.640;2023-04-01T05:08:52;98723.25;;;10.16;100.00
46087;BME280;31824;49.648;8.640;2023-04-01T05:11:56;98721.56;;;10.16;100.00
46087;BME280;31824;49.648;8.640;2023-04-01T05:14:59;98727.22;;;10.22;100.00
46087;BME280;31824;49.648;8.640;2023-04-01T05:18:01;98726.22;;;10.20;100.00
46087;BME280;31824;49.648;8.640;2023-04-01T05:21:04;98718.94;;;10.16;100.00
46087;BME280;31824;49.648;8.640;2023-04-01T05:24:07;98724.22;;;10.04;100.00
46087;BME280;31824;49.648;8.640;2023-04-01T05:27:11;98719.47;;;9.99;100.00
46087;BME280;31824;49.648;8.640;2023-04-01T05:30:15;98722.66;;;9.94;100.00
46087;BME280;31824;49.648;8.640;2023-04-01T05:33:41;98720.63;;;9.90;100.00
46087;BME280;31824;49.648;8.640;2023-04-01T05:36:43;98716.19;;;9.89;100.00
46087;BME280;31824;49.648;8.640;2023-04-01T05:39:45;98723.16;;;9.89;100.00
46087;BME280;31824;49.648;8.640;2023-04-01T05:42:48;98719.69;;;9.90;100.00
46087;BME280;31824;49.648;8.640;2023-04-01T05:45:51;98708.50;;;9.92;100.00
46087;BME280;31824;49.648;8.640;2023-04-01T05:49:06;98706.72;;;9.91;100.00
46087;BME280;31824;49.648;8.640;2023-04-01T05:52:09;98703.84;;;9.88;100.00
46087;BME280;31824;49.648;8.640;2023-04-01T05:55:11;98709.19;;;9.90;100.00
46087;BME280;31824;49.648;8.640;2023-04-01T05:58:14;98702.03;;;9.87;100.00
46087;BME280;31824;49.648;8.640;2023-04-01T06:01:19;98710.47;;;9.83;100.00
46087;BME280;31824;49.648;8.640;2023-04-01T06:04:21;98705.13;;;9.82;100.00
46087;BME280;31824;49.648;8.640;2023-04-01T06:07:24;98705.03;;;9.80;100.00
46087;BME280;31824;49.648;8.640;2023-04-01T06:10:37;98699.00;;;9.69;100.00
46087;BME280;31824;49.648;8.640;2023-04-01T06:13:59;98707.66;;;9.68;100.00
46087;BME280;31824;49.648;8.640;2023-04-01T06:17:18;98706.34;;;9.61;100.00
46087;BME280;31824;49.648;8.640;2023-04-01T06:20:28;98705.78;;;9.66;100.00
46087;BME280;31824;49.648;8.640;2023-04-01T06:23:59;98716.56;;;9.70;100.00
46087;BME280;31824;49.648;8.640;2023-04-01T06:27:12;98707.81;;;9.70;100.00
46087;BME280;31824;49.648;8.640;2023-04-01T06:30:33;98713.25;;;9.73;100.00
46087;BME280;31824;49.648;8.640;2023-04-01T06:33:55;98709.16;;;9.76;100.00
46087;BME280;31824;49.648;8.640;2023-04-01T06:37:12;98702.19;;;9.77;100.00
46087;BME280;31824;49.648;8.640;2023-04-01T06:40:45;98705.94;;;9.80;100.00
46087;BME280;31824;49.648;8.640;2023-04-01T06:43:58;98696.47;;;9.83;100.00
46087;BME280;31824;49.648;8.640;2023-04-01T06:47:36;98705.78;;;9.91;100.00
46087;BME280;31824;49.648;8.640;2023-04-01T06:51:21;98704.78;;;9.89;100.00
46087;BME280;31824;49.648;8.640;2023-04-01T06:54:47;98712.75;;;9.90;100.00
46087;BME280;31824;49.648;8.640;2023-04-01T06:58:14;98684.38;;;9.85;100.00
46087;BME280;31824;49.648;8.640;2023-04-01T07:01:22;98705.78;;;9.91;100.00
46087;BME280;31824;49.648;8.640;2023-04-01T07:04:29;98709.44;;;9.93;100.00
46087;BME280;31824;49.648;8.640;2023-04-01T07:07:35;98706.25;;;9.97;100.00
46087;BME280;31824;49.648;8.640;2023-04-01T07:10:47;98703.72;;;9.99;100.00
46087;BME280;31824;49.648;8.640;2023-04-01T07:14:14;98705.31;;;9.96;100.00
46087;BME280;31824;49.648;8.640;2023-04-01T07:17:22;98714.41;;;10.02;100.00
46087;BME280;31824;49.648;8.640;2023-04-01T07:20:28;98707.44;;;10.02;100.00
46087;BME280;31824;49.648;8.640;2023-04-01T07:23:36;98722.16;;;10.12;100.00
46087;BME280;31824;49.648;8.640;2023-04-01T07:26:57;98716.94;;;10.00;100.00
46087;BME280;31824;49.648;8.640;2023-04-01T07:30:06;98726.63;;;10.01;100.00
46087;BME280;31824;49.648;8.640;2023-04-01T07:33:19;98716.34;;;10.04;100.00
46087;BME280;31824;49.648;8.640;2023-04-01T07:36:26;98722.38;;;10.03;100.00
46087;BME280;31824;49.648;8.640;2023-04-01T07:39:40;98721.69;;;10.06;100.00
46087;BME280;31824;49.648;8.640;2023-04-01T07:43:01;98729.19;;;10.13;100.00
46087;BME280;31824;49.648;8.640;2023-04-01T07:46:17;98728.84;;;10.20;100.00
46087;BME280;31824;49.648;8.640;2023-04-01T07:49:30;98722.56;;;10.18;100.00
46087;BME280;31824;49.648;8.640;2023-04-01T07:52:42;98726.13;;;10.19;100.00
46087;BME280;31824;49.648;8.640;2023-04-01T07:56:02;98723.78;;;10.23;100.00
46087;BME280;31824;49.648;8.640;2023-04-01T07:59:15;98723.69;;;10.22;100.00
46087;BME280;31824;49.648;8.640;2023-04-01T08:02:43;98728.25;;;10.24;100.00
46087;BME280;31824;49.648;8.640;2023-04-01T08:05:54;98729.16;;;10.25;100.00
46087;BME280;31824;49.648;8.640;2023-04-01T08:09:03;98730.78;;;10.23;100.00
46087;BME280;31824;49.648;8.640;2023-04-01T08:12:34;98732.06;;;10.16;100.00
46087;BME280;31824;49.648;8.640;2023-04-01T08:16:20;98744.94;;;10.13;100.00
46087;BME280;31824;49.648;8.640;2023-04-01T08:19:33;98730.25;;;10.03;100.00
46087;BME280;31824;49.648;8.640;2023-04-01T08:22:45;98739.84;;;10.03;100.00
46087;BME280;31824;49.648;8.640;2023-04-01T08:26:04;98750.13;;;10.00;100.00
46087;BME280;31824;49.648;8.640;2023-04-01T08:29:15;98753.94;;;9.91;100.00
46087;BME280;31824;49.648;8.640;2023-04-01T08:32:21;98757.25;;;9.89;100.00
46087;BME280;31824;49.648;8.640;2023-04-01T08:35:29;98757.09;;;9.87;100.00
46087;BME280;31824;49.648;8.640;2023-04-01T08:38:40;98757.47;;;9.80;100.00
46087;BME280;31824;49.648;8.640;2023-04-01T08:42:26;98757.84;;;9.73;100.00
46087;BME280;31824;49.648;8.640;2023-04-01T08:45:56;98757.50;;;9.68;100.00
46087;BME280;31824;49.648;8.640;2023-04-01T08:49:12;98755.00;;;9.70;100.00
46087;BME280;31824;49.648;8.640;2023-04-01T08:52:30;98753.06;;;9.67;100.00
46087;BME280;31824;49.648;8.640;2023-04-01T08:55:38;98765.50;;;9.70;100.00
46087;BME280;31824;49.648;8.640;2023-04-01T08:58:56;98761.25;;;9.72;100.00
46087;BME280;31824;49.648;8.640;2023-04-01T09:02:18;98764.34;;;9.78;100.00
46087;BME280;31824;49.648;8.640;2023-04-01T09:06:04;98770.69;;;9.82;100.00
46087;BME280;31824;49.648;8.640;2023-04-01T09:09:36;98767.28;;;9.83;100.00
46087;BME280;31824;49.648;8.640;2023-04-01T09:12:50;98769.34;;;9.75;100.00
46087;BME280;31824;49.648;8.640;2023-04-01T09:16:15;98764.91;;;9.74;100.00
46087;BME280;31824;49.648;8.640;2023-04-01T09:19:25;98771.28;;;9.77;100.00
46087;BME280;31824;49.648;8.640;2023-04-01T09:22:46;98775.41;;;9.74;100.00
46087;BME280;31824;49.648;8.640;2023-04-01T09:25:59;98771.75;;;9.72;100.00
46087;BME280;31824;49.648;8.640;2023-04-01T09:29:20;98777.88;;;9.72;100.00
46087;BME280;31824;49.648;8.640;2023-04-01T09:32:42;98779.59;;;9.72;100.00
46087;BME280;31824;49.648;8.640;2023-04-01T09:36:05;98777.69;;;9.69;100.00
46087;BME280;31824;49.648;8.640;2023-04-01T09:39:34;98782.34;;;9.73;100.00
46087;BME280;31824;49.648;8.640;2023-04-01T09:42:46;98780.66;;;9.74;100.00
46087;BME280;31824;49.648;8.640;2023-04-01T09:46:19;98783.13;;;9.72;100.00
46087;BME280;31824;49.648;8.640;2023-04-01T09:49:40;98783.84;;;9.70;100.00
46087;BME280;31824;49.648;8.640;2023-04-01T09:52:51;98791.25;;;9.75;100.00
46087;BME280;31824;49.648;8.640;2023-04-01T10:03:52;98791.13;;;9.74;100.00
46087;BME280;31824;49.648;8.640;2023-04-01T10:07:21;98800.09;;;9.89;100.00
46087;BME280;31824;49.648;8.640;2023-04-01T10:10:52;98802.50;;;9.86;100.00
46087;BME280;31824;49.648;8.640;2023-04-01T10:14:17;98801.59;;;9.86;100.00
46087;BME280;31824;49.648;8.640;2023-04-01T10:18:01;98807.41;;;9.93;100.00
46087;BME280;31824;49.648;8.640;2023-04-01T10:25:19;98811.63;;;9.91;100.00
46087;BME280;31824;49.648;8.640;2023-04-01T10:29:00;98807.13;;;10.02;100.00
46087;BME280;31824;49.648;8.640;2023-04-01T10:32:29;98809.41;;;10.09;100.00
46087;BME280;31824;49.648;8.640;2023-04-01T10:36:11;98802.13;;;10.05;100.00
46087;BME280;31824;49.648;8.640;2023-04-01T10:40:07;98810.09;;;10.07;100.00
46087;BME280;31824;49.648;8.640;2023-04-01T10:44:04;98807.91;;;10.13;100.00
46087;BME280;31824;49.648;8.640;2023-04-01T10:47:53;98808.16;;;10.16;100.00
46087;BME280;31824;49.648;8.640;2023-04-01T10:51:12;98805.28;;;10.13;100.00
46087;BME280;31824;49.648;8.640;2023-04-01T10:54:43;98808.34;;;10.19;100.00
46087;BME280;31824;49.648;8.640;2023-04-01T11:10:24;98822.47;;;10.21;100.00
46087;BME280;31824;49.648;8.640;2023-04-01T11:17:34;98828.66;;;10.22;100.00
46087;BME280;31824;49.648;8.640;2023-04-01T11:21:07;98834.59;;;10.19;100.00
46087;BME280;31824;49.648;8.640;2023-04-01T11:24:59;98830.59;;;10.24;100.00
46087;BME280;31824;49.648;8.640;2023-04-01T11:28:47;98835.25;;;10.28;100.00
46087;BME280;31824;49.648;8.640;2023-04-01T11:31:59;98832.50;;;10.39;100.00
46087;BME280;31824;49.648;8.640;2023-04-01T11:35:22;98832.94;;;10.33;100.00
46087;BME280;31824;49.648;8.640;2023-04-01T11:42:17;98832.66;;;10.40;100.00
46087;BME280;31824;49.648;8.640;2023-04-01T11:45:35;98839.38;;;10.37;100.00
46087;BME280;31824;49.648;8.640;2023-04-01T11:48:51;98837.06;;;10.41;100.00
46087;BME280;31824;49.648;8.640;2023-04-01T11:52:19;98829.19;;;10.41;100.00
46087;BME280;31824;49.648;8.640;2023-04-01T11:55:29;98846.75;;;10.30;100.00
46087;BME280;31824;49.648;8.640;2023-04-01T11:58:51;98848.25;;;10.39;100.00
46087;BME280;31824;49.648;8.640;2023-04-01T12:01:59;98842.09;;;10.38;100.00
46087;BME280;31824;49.648;8.640;2023-04-01T12:05:24;98852.59;;;10.38;100.00
46087;BME280;31824;49.648;8.640;2023-04-01T12:08:39;98855.34;;;10.40;100.00
46087;BME280;31824;49.648;8.640;2023-04-01T12:12:12;98863.25;;;10.65;100.00
46087;BME280;31824;49.648;8.640;2023-04-01T12:15:43;98853.81;;;11.06;100.00
46087;BME280;31824;49.648;8.640;2023-04-01T12:18:59;98825.31;;;11.25;100.00
46087;BME280;31824;49.648;8.640;2023-04-01T12:22:27;98844.09;;;11.05;100.00
46087;BME280;31824;49.648;8.640;2023-04-01T12:25:51;98837.88;;;11.43;100.00
46087;BME280;31824;49.648;8.640;2023-04-01T12:29:09;98838.41;;;11.51;100.00
46087;BME280;31824;49.648;8.640;2023-04-01T12:32:23;98835.97;;;11.54;100.00
46087;BME280;31824;49.648;8.640;2023-04-01T12:35:33;98841.94;;;11.51;100.00
46087;BME280;31824;49.648;8.640;2023-04-01T12:38:44;98837.00;;;11.42;100.00
46087;BME280;31824;49.648;8.640;2023-04-01T12:42:00;98839.63;;;11.42;100.00
46087;BME280;31824;49.648;8.640;2023-04-01T12:45:24;98836.75;;;11.39;100.00
46087;BME280;31824;49.648;8.640;2023-04-01T12:49:00;98843.84;;;11.40;100.00
46087;BME280;31824;49.648;8.640;2023-04-01T12:52:38;98835.75;;;11.37;100.00
46087;BME280;31824;49.648;8.640;2023-04-01T12:55:45;98834.03;;;11.38;100.00
46087;BME280;31824;49.648;8.640;2023-04-01T12:59:10;98842.53;;;11.34;100.00
46087;BME280;31824;49.648;8.640;2023-04-01T13:02:25;98843.03;;;11.28;100.00
46087;BME280;31824;49.648;8.640;2023-04-01T13:05:49;98833.22;;;11.25;100.00
46087;BME280;31824;49.648;8.640;2023-04-01T13:09:07;98858.41;;;11.35;100.00
46087;BME280;31824;49.648;8.640;2023-04-01T13:12:40;98851.03;;;11.43;100.00
46087;BME280;31824;49.648;8.640;2023-04-01T13:15:47;98857.91;;;11.54;100.00
46087;BME280;31824;49.648;8.640;2023-04-01T13:18:58;98857.22;;;11.57;100.00
46087;BME280;31824;49.648;8.640;2023-04-01T13:22:06;98858.53;;;11.50;100.00
46087;BME280;31824;49.648;8.640;2023-04-01T13:25:16;98866.31;;;11.62;100.00
46087;BME280;31824;49.648;8.640;2023-04-01T13:28:26;98875.44;;;11.80;100.00
46087;BME280;31824;49.648;8.640;2023-04-01T13:31:36;98879.06;;;11.69;100.00
46087;BME280;31824;49.648;8.640;2023-04-01T13:34:51;98871.88;;;11.66;100.00
46087;BME280;31824;49.648;8.640;2023-04-01T13:38:42;98878.47;;;11.73;100.00
46087;BME280;31824;49.648;8.640;2023-04-01T13:42:16;98881.31;;;11.63;100.00
46087;BME280;31824;49.648;8.640;2023-04-01T13:45:23;98893.25;;;11.71;100.00
46087;BME280;31824;49.648;8.640;2023-04-01T13:48:42;98891.34;;;11.82;100.00
46087;BME280;31824;49.648;8.640;2023-04-01T13:52:17;98878.88;;;11.66;100.00
46087;BME280;31824;49.648;8.640;2023-04-01T13:55:57;98893.94;;;11.69;100.00
46087;BME280;31824;49.648;8.640;2023-04-01T13:59:32;98887.75;;;11.68;100.00
46087;BME280;31824;49.648;8.640;2023-04-01T14:37:25;98919.06;;;11.25;100.00
46087;BME280;31824;49.648;8.640;2023-04-01T14:40:47;98933.78;;;11.23;100.00
46087;BME280;31824;49.648;8.640;2023-04-01T14:47:37;98942.47;;;11.22;100.00
46087;BME280;31824;49.648;8.640;2023-04-01T14:50:46;98941.09;;;11.27;100.00
46087;BME280;31824;49.648;8.640;2023-04-01T14:54:05;98941.72;;;11.36;100.00
46087;BME280;31824;49.648;8.640;2023-04-01T14:57:12;98950.56;;;11.50;100.00
46087;BME280;31824;49.648;8.640;2023-04-01T15:00:17;98946.41;;;11.40;100.00
46087;BME280;31824;49.648;8.640;2023-04-01T15:03:24;98952.69;;;11.42;100.00
46087;BME280;31824;49.648;8.640;2023-04-01T15:06:39;98944.91;;;11.44;100.00
46087;BME280;31824;49.648;8.640;2023-04-01T15:09:51;98953.84;;;11.34;100.00
46087;BME280;31824;49.648;8.640;2023-04-01T15:13:05;98951.00;;;11.31;100.00
46087;BME280;31824;49.648;8.640;2023-04-01T15:16:19;98948.88;;;11.25;100.00
46087;BME280;31824;49.648;8.640;2023-04-01T15:19:33;98951.72;;;11.28;100.00
46087;BME280;31824;49.648;8.640;2023-04-01T15:22:56;98950.84;;;11.16;100.00
46087;BME280;31824;49.648;8.640;2023-04-01T15:26:31;98958.63;;;11.14;100.00
46087;BME280;31824;49.648;8.640;2023-04-01T15:29:46;98962.91;;;11.12;100.00
46087;BME280;31824;49.648;8.640;2023-04-01T15:33:14;98973.84;;;11.07;100.00
46087;BME280;31824;49.648;8.640;2023-04-01T15:36:27;98967.59;;;11.30;100.00
46087;BME280;31824;49.648;8.640;2023-04-01T15:39:43;98969.16;;;11.53;100.00
46087;BME280;31824;49.648;8.640;2023-04-01T15:43:03;98971.50;;;11.48;100.00
46087;BME280;31824;49.648;8.640;2023-04-01T15:49:43;98976.22;;;11.41;100.00
46087;BME280;31824;49.648;8.640;2023-04-01T15:53:00;98992.72;;;11.38;100.00
46087;BME280;31824;49.648;8.640;2023-04-01T15:56:16;98993.72;;;11.40;100.00
46087;BME280;31824;49.648;8.640;2023-04-01T16:00:01;98982.41;;;11.41;100.00
46087;BME280;31824;49.648;8.640;2023-04-01T16:03:33;98992.00;;;11.41;100.00
46087;BME280;31824;49.648;8.640;2023-04-01T16:06:50;98990.56;;;11.32;100.00
46087;BME280;31824;49.648;8.640;2023-04-01T16:10:06;98989.69;;;11.45;100.00
46087;BME280;31824;49.648;8.640;2023-04-01T16:13:23;98998.09;;;11.53;100.00
46087;BME280;31824;49.648;8.640;2023-04-01T16:16:41;99000.41;;;11.48;100.00
46087;BME280;31824;49.648;8.640;2023-04-01T16:19:51;99006.81;;;11.52;100.00
46087;BME280;31824;49.648;8.640;2023-04-01T16:22:58;99023.81;;;11.32;100.00
46087;BME280;31824;49.648;8.640;2023-04-01T16:26:07;99013.22;;;11.30;100.00
46087;BME280;31824;49.648;8.640;2023-04-01T16:29:20;99018.38;;;11.29;100.00
46087;BME280;31824;49.648;8.640;2023-04-01T16:32:37;99019.47;;;11.07;100.00
46087;BME280;31824;49.648;8.640;2023-04-01T16:35:48;99032.22;;;11.14;100.00
46087;BME280;31824;49.648;8.640;2023-04-01T16:39:15;99025.69;;;11.21;100.00
46087;BME280;31824;49.648;8.640;2023-04-01T16:42:34;99029.09;;;10.95;100.00
46087;BME280;31824;49.648;8.640;2023-04-01T16:45:39;99043.78;;;11.17;100.00
46087;BME280;31824;49.648;8.640;2023-04-01T16:48:58;99031.84;;;11.22;100.00
46087;BME280;31824;49.648;8.640;2023-04-01T16:52:13;99029.50;;;11.13;100.00
46087;BME280;31824;49.648;8.640;2023-04-01T16:55:18;99026.78;;;11.11;100.00
46087;BME280;31824;49.648;8.640;2023-04-01T16:58:25;99038.38;;;10.90;100.00
46087;BME280;31824;49.648;8.640;2023-04-01T17:01:32;99042.03;;;10.80;100.00
46087;BME280;31824;49.648;8.640;2023-04-01T17:04:43;99045.66;;;10.94;100.00
46087;BME280;31824;49.648;8.640;2023-04-01T17:07:49;99043.16;;;10.84;100.00
46087;BME280;31824;49.648;8.640;2023-04-01T17:11:04;99047.81;;;11.00;100.00
46087;BME280;31824;49.648;8.640;2023-04-01T17:14:21;99050.06;;;11.07;100.00
46087;BME280;31824;49.648;8.640;2023-04-01T17:17:31;99064.16;;;11.07;100.00
46087;BME280;31824;49.648;8.640;2023-04-01T17:20:42;99064.91;;;11.18;100.00
46087;BME280;31824;49.648;8.640;2023-04-01T17:23:49;99061.84;;;11.12;100.00
46087;BME280;31824;49.648;8.640;2023-04-01T17:26:58;99061.41;;;11.06;100.00
46087;BME280;31824;49.648;8.640;2023-04-01T17:30:16;99072.59;;;11.03;100.00
46087;BME280;31824;49.648;8.640;2023-04-01T17:33:42;99078.09;;;11.06;100.00
46087;BME280;31824;49.648;8.640;2023-04-01T17:37:06;99100.00;;;11.07;100.00
46087;BME280;31824;49.648;8.640;2023-04-01T17:40:26;99087.34;;;11.01;100.00
46087;BME280;31824;49.648;8.640;2023-04-01T17:43:39;99097.63;;;10.98;100.00
46087;BME280;31824;49.648;8.640;2023-04-01T17:46:59;99100.25;;;11.10;100.00
46087;BME280;31824;49.648;8.640;2023-04-01T17:50:13;99104.69;;;11.11;100.00
46087;BME280;31824;49.648;8.640;2023-04-01T17:53:31;99103.00;;;11.00;100.00
46087;BME280;31824;49.648;8.640;2023-04-01T17:56:45;99104.94;;;11.02;100.00
46087;BME280;31824;49.648;8.640;2023-04-01T17:59:58;99103.94;;;10.88;100.00
46087;BME280;31824;49.648;8.640;2023-04-01T18:03:20;99114.44;;;10.88;100.00
46087;BME280;31824;49.648;8.640;2023-04-01T18:06:33;99121.75;;;10.80;100.00
46087;BME280;31824;49.648;8.640;2023-04-01T18:09:48;99137.41;;;10.79;100.00